Time;durP1;ratioP1;P1;durP2;ratioP2;P2;SDS_P1;SDS_P2;PMS_P1;PMS_P2;Temp;Humidity;BMP_temperature;BMP_pressure;BME280_temperature;BME280_humidity;BME280_pressure;Samples;Min_cycle;Max_cycle;Signal;HPM_P1;HPM_P2
2021/12/18 00:02:03;;;;;;;39.90;10.97;;;6.80;95.60;;;;;;5030519;28;20237;-91
2021/12/18 00:04:29;;;;;;;23.57;9.93;;;6.80;95.60;;;;;;5039156;28;20166;-91
2021/12/18 00:06:55;;;;;;;28.73;10.17;;;6.80;95.70;;;;;;5039094;28;20199;-93
2021/12/18 00:09:21;;;;;;;34.30;9.00;;;6.70;95.70;;;;;;5039178;28;20234;-93
2021/12/18 00:11:48;;;;;;;23.27;8.70;;;6.70;95.70;;;;;;5039134;28;20189;-92
2021/12/18 00:14:15;;;;;;;18.57;7.80;;;6.70;95.80;;;;;;5038696;28;20166;-93
2021/12/18 00:16:40;;;;;;;15.53;7.73;;;6.70;95.80;;;;;;5036090;28;20775;-92
2021/12/18 00:19:06;;;;;;;16.03;7.50;;;6.70;95.80;;;;;;5036467;28;20173;-93
2021/12/18 00:21:36;;;;;;;19.40;7.13;;;6.70;95.80;;;;;;5035688;28;20277;-93
2021/12/18 00:24:05;;;;;;;20.33;7.90;;;6.70;95.80;;;;;;5036680;28;20607;-92
2021/12/18 00:26:32;;;;;;;18.57;7.60;;;6.70;95.90;;;;;;5036731;28;20201;-93
2021/12/18 00:28:58;;;;;;;22.67;7.80;;;6.70;95.90;;;;;;5036854;28;20165;-92
2021/12/18 00:31:23;;;;;;;13.83;7.10;;;6.70;95.90;;;;;;5038035;28;20221;-93
2021/12/18 00:33:49;;;;;;;17.87;7.70;;;6.70;95.90;;;;;;5033415;28;20249;-93
2021/12/18 00:36:15;;;;;;;16.90;6.60;;;6.60;95.90;;;;;;5032063;28;20267;-92
2021/12/18 00:38:41;;;;;;;13.70;5.90;;;6.60;95.90;;;;;;5036333;28;20208;-92
2021/12/18 00:43:37;;;;;;;17.57;6.50;;;6.60;96.00;;;;;;5039149;28;20166;-92
2021/12/18 00:46:04;;;;;;;20.17;5.57;;;6.60;96.00;;;;;;5038569;28;20211;-91
2021/12/18 00:48:30;;;;;;;13.17;4.47;;;6.60;96.00;;;;;;5038433;28;20173;-92
2021/12/18 00:50:56;;;;;;;10.23;4.07;;;6.60;96.00;;;;;;5037373;28;20268;-92
2021/12/18 00:53:22;;;;;;;12.50;4.10;;;6.60;96.00;;;;;;5038721;28;20150;-91
2021/12/18 00:55:51;;;;;;;9.23;4.03;;;6.60;96.00;;;;;;5037460;28;20189;-92
2021/12/18 00:58:17;;;;;;;13.83;5.20;;;6.60;96.00;;;;;;5038700;28;20153;-89
2021/12/18 01:00:43;;;;;;;8.17;4.00;;;6.60;96.00;;;;;;5038550;28;20165;-92
2021/12/18 01:03:19;;;;;;;8.63;3.83;;;6.60;96.00;;;;;;5038145;28;20221;-93
2021/12/18 01:05:49;;;;;;;6.30;3.17;;;6.60;96.00;;;;;;5038269;28;20192;-93
2021/12/18 01:08:16;;;;;;;6.37;3.23;;;6.50;96.10;;;;;;5038536;28;20152;-94
2021/12/18 01:13:22;;;;;;;5.73;3.00;;;6.60;96.10;;;;;;5038614;28;20232;-93
2021/12/18 01:15:54;;;;;;;7.63;3.40;;;6.60;96.10;;;;;;5037237;28;20189;-92
2021/12/18 01:23:49;;;;;;;9.07;3.77;;;6.60;96.10;;;;;;5030773;28;20169;-92
2021/12/18 01:26:14;;;;;;;10.03;3.53;;;6.60;96.10;;;;;;5033797;28;20260;-93
2021/12/18 01:28:40;;;;;;;11.27;4.23;;;6.70;96.10;;;;;;5038000;28;20225;-93
2021/12/18 01:31:08;;;;;;;10.90;4.13;;;6.70;96.10;;;;;;5037006;28;20205;-93
2021/12/18 01:33:34;;;;;;;13.27;4.37;;;6.60;96.10;;;;;;5037530;28;20177;-93
2021/12/18 01:36:01;;;;;;;17.03;4.50;;;6.70;96.10;;;;;;5036953;28;20193;-93
2021/12/18 01:38:29;;;;;;;13.67;5.10;;;6.60;96.10;;;;;;5037635;28;20189;-92
2021/12/18 01:40:55;;;;;;;11.50;4.00;;;6.70;96.20;;;;;;5037883;28;20173;-92
2021/12/18 01:52:18;;;;;;;14.03;5.40;;;6.70;96.20;;;;;;5038592;28;20224;-92
2021/12/18 01:54:45;;;;;;;23.70;6.07;;;6.70;96.20;;;;;;5038057;28;20212;-93
2021/12/18 01:57:12;;;;;;;12.43;4.43;;;6.70;96.20;;;;;;5038080;28;20153;-91
2021/12/18 01:59:43;;;;;;;18.80;5.77;;;6.80;96.20;;;;;;5038068;28;20150;-93
2021/12/18 02:02:08;;;;;;;23.07;5.93;;;6.80;96.30;;;;;;5038114;28;20205;-90
2021/12/18 02:04:34;;;;;;;21.60;7.43;;;6.80;96.20;;;;;;5037986;28;20182;-92
2021/12/18 02:07:01;;;;;;;22.43;6.17;;;6.80;96.30;;;;;;5039245;28;20169;-91
2021/12/18 02:09:39;;;;;;;23.47;6.67;;;6.80;96.30;;;;;;5041539;28;20225;-91
2021/12/18 02:12:05;;;;;;;22.77;6.77;;;6.80;96.30;;;;;;5041434;28;20184;-92
2021/12/18 02:19:32;;;;;;;24.50;6.43;;;6.90;96.30;;;;;;5041310;28;20229;-92
2021/12/18 02:20:21;;;;;;;25.97;7.43;;;6.90;96.30;;;;;;5041739;28;20164;-93
2021/12/18 02:22:46;;;;;;;24.33;7.03;;;6.90;96.40;;;;;;5041293;28;20165;-93
2021/12/18 02:25:12;;;;;;;17.07;7.10;;;6.90;96.40;;;;;;5041128;28;20180;-91
2021/12/18 02:27:38;;;;;;;28.17;7.27;;;6.90;96.40;;;;;;5041182;28;20189;-93
2021/12/18 02:30:05;;;;;;;24.63;7.93;;;7.00;96.40;;;;;;5041050;28;20153;-91
2021/12/18 02:32:30;;;;;;;27.87;7.87;;;7.00;96.40;;;;;;5041073;28;20154;-91
2021/12/18 02:35:03;;;;;;;23.10;7.93;;;7.00;96.40;;;;;;5040939;28;20176;-92
2021/12/18 02:37:29;;;;;;;22.00;7.20;;;7.00;96.40;;;;;;5041018;28;20150;-91
2021/12/18 02:42:28;;;;;;;16.60;5.73;;;7.10;96.40;;;;;;5041493;28;20213;-93
2021/12/18 02:44:54;;;;;;;11.73;4.40;;;7.10;96.40;;;;;;5040700;28;20242;-92
2021/12/18 02:47:20;;;;;;;7.37;3.30;;;7.10;96.40;;;;;;5040783;28;20173;-92
2021/12/18 02:49:49;;;;;;;9.07;3.30;;;7.10;96.40;;;;;;5040776;28;20174;-91
2021/12/18 02:52:15;;;;;;;10.73;3.60;;;7.10;96.40;;;;;;5040613;28;20181;-93
2021/12/18 02:54:42;;;;;;;11.00;4.50;;;7.10;96.40;;;;;;5040564;28;20164;-93
2021/12/18 02:57:08;;;;;;;9.73;4.03;;;7.10;96.40;;;;;;5040533;28;20200;-93
2021/12/18 02:59:46;;;;;;;12.33;4.20;;;7.10;96.40;;;;;;5040544;28;20161;-91
2021/12/18 03:02:12;;;;;;;10.83;3.83;;;7.20;96.40;;;;;;5040511;28;20157;-92
2021/12/18 03:04:39;;;;;;;10.97;3.77;;;7.20;96.40;;;;;;5040422;28;20172;-92
2021/12/18 03:07:08;;;;;;;12.50;4.40;;;7.20;96.40;;;;;;5040366;28;20165;-93
2021/12/18 03:25:44;;;;;;;19.20;7.40;;;7.20;96.40;;;;;;5040557;28;20177;-93
2021/12/18 03:28:10;;;;;;;15.70;6.33;;;7.10;96.40;;;;;;5040044;28;20181;-93
2021/12/18 03:30:37;;;;;;;14.80;6.90;;;7.10;96.40;;;;;;5039893;28;20193;-91
2021/12/18 03:33:04;;;;;;;14.37;6.53;;;7.10;96.40;;;;;;5039853;28;20161;-92
2021/12/18 03:36:00;;;;;;;14.77;6.80;;;7.20;96.40;;;;;;5200839;27;20524;-95
2021/12/18 03:38:26;;;;;;;14.33;6.27;;;7.10;96.30;;;;;;5183063;27;20136;-95
2021/12/18 03:40:51;;;;;;;13.73;6.67;;;7.10;96.40;;;;;;5182953;27;20129;-95
2021/12/18 03:43:17;;;;;;;12.37;6.00;;;7.10;96.40;;;;;;5182996;27;20129;-95
2021/12/18 03:45:43;;;;;;;10.13;5.00;;;7.20;96.40;;;;;;5182824;27;20135;-94
2021/12/18 03:48:08;;;;;;;8.20;3.83;;;7.10;96.40;;;;;;5182736;27;20144;-94
2021/12/18 03:50:38;;;;;;;10.03;3.40;;;7.10;96.40;;;;;;5182742;27;20156;-96
2021/12/18 03:53:04;;;;;;;6.17;3.20;;;7.10;96.40;;;;;;5182812;27;20140;-95
2021/12/18 03:55:30;;;;;;;7.93;2.80;;;7.20;96.40;;;;;;5182573;27;20172;-94
2021/12/18 03:57:58;;;;;;;12.33;3.40;;;7.20;96.40;;;;;;5182653;27;20154;-95
2021/12/18 04:00:23;;;;;;;8.20;2.87;;;7.10;96.40;;;;;;5182580;27;20136;-96
2021/12/18 04:02:49;;;;;;;6.20;3.07;;;7.10;96.40;;;;;;5182550;27;20128;-94
2021/12/18 04:05:15;;;;;;;6.63;2.67;;;7.20;96.40;;;;;;5182343;27;20137;-95
2021/12/18 04:07:44;;;;;;;4.53;2.23;;;7.10;96.40;;;;;;5182464;27;20133;-95
2021/12/18 04:10:14;;;;;;;6.00;2.40;;;7.10;96.40;;;;;;5182433;27;20139;-95
2021/12/18 04:12:39;;;;;;;6.10;3.03;;;7.10;96.40;;;;;;5182382;27;20139;-95
2021/12/18 04:15:06;;;;;;;5.50;2.40;;;7.10;96.40;;;;;;5182162;27;20168;-95
2021/12/18 04:17:32;;;;;;;6.77;2.50;;;7.10;96.40;;;;;;5182261;27;20136;-95
2021/12/18 04:19:58;;;;;;;6.70;3.00;;;7.10;96.40;;;;;;5182249;27;20156;-95
2021/12/18 04:22:24;;;;;;;5.37;2.60;;;7.10;96.40;;;;;;5182156;27;20128;-94
2021/12/18 04:24:49;;;;;;;4.77;2.47;;;7.10;96.40;;;;;;5182111;27;20164;-95
2021/12/18 04:27:15;;;;;;;6.27;2.60;;;7.10;96.30;;;;;;5182086;27;20158;-95
2021/12/18 04:29:41;;;;;;;6.07;2.57;;;7.10;96.30;;;;;;5182020;27;20133;-95
2021/12/18 04:32:07;;;;;;;6.70;2.47;;;7.10;96.40;;;;;;5182048;27;20160;-93
2021/12/18 04:34:33;;;;;;;7.30;3.43;;;7.10;96.30;;;;;;5181666;27;20168;-95
2021/12/18 04:37:01;;;;;;;8.13;2.97;;;7.10;96.30;;;;;;5181889;27;20136;-94
2021/12/18 04:39:27;;;;;;;10.30;3.60;;;7.10;96.30;;;;;;5181785;27;20128;-95
2021/12/18 04:41:57;;;;;;;8.77;3.57;;;7.10;96.30;;;;;;5181864;27;20205;-94
2021/12/18 04:44:24;;;;;;;7.83;2.63;;;7.00;96.30;;;;;;5181776;27;20158;-95
2021/12/18 04:46:50;;;;;;;7.80;2.97;;;7.10;96.30;;;;;;5169342;27;20161;-95
2021/12/18 04:49:15;;;;;;;5.27;2.77;;;7.00;96.30;;;;;;5167785;27;20137;-95
2021/12/18 04:51:41;;;;;;;7.30;3.10;;;7.10;96.30;;;;;;5167740;27;20205;-93
2021/12/18 04:54:08;;;;;;;6.57;2.70;;;7.10;96.30;;;;;;5167631;27;20212;-95
2021/12/18 04:56:34;;;;;;;8.83;3.23;;;7.00;96.30;;;;;;5167555;27;20160;-95
2021/12/18 04:58:59;;;;;;;7.83;3.30;;;7.00;96.20;;;;;;5167554;27;20157;-95
2021/12/18 05:01:25;;;;;;;6.10;3.13;;;7.00;96.20;;;;;;5167505;27;20133;-94
2021/12/18 05:03:51;;;;;;;7.27;3.20;;;7.00;96.20;;;;;;5167505;27;20137;-96
2021/12/18 05:06:17;;;;;;;8.23;3.33;;;7.00;96.20;;;;;;5167340;27;20137;-94
2021/12/18 05:08:43;;;;;;;9.73;3.47;;;7.00;96.20;;;;;;5167327;27;20163;-95
2021/12/18 05:11:08;;;;;;;6.57;3.37;;;7.00;96.20;;;;;;5167334;27;20148;-95
2021/12/18 05:13:34;;;;;;;6.97;3.40;;;6.90;96.10;;;;;;5167267;27;20141;-95
2021/12/18 05:16:00;;;;;;;7.80;3.43;;;7.00;96.10;;;;;;5167198;27;20133;-95
2021/12/18 05:18:26;;;;;;;9.53;4.53;;;7.00;96.10;;;;;;5167187;27;20133;-95
2021/12/18 05:20:51;;;;;;;11.17;4.67;;;6.90;96.10;;;;;;5167130;27;20133;-94
2021/12/18 05:23:17;;;;;;;12.20;4.53;;;6.90;96.10;;;;;;5167166;27;20133;-95
2021/12/18 05:25:43;;;;;;;9.77;4.37;;;6.90;96.10;;;;;;5167030;27;20137;-95
2021/12/18 05:28:09;;;;;;;9.63;4.30;;;6.90;96.10;;;;;;5167077;27;20208;-95
2021/12/18 05:30:34;;;;;;;7.70;3.43;;;6.90;96.10;;;;;;5166986;27;20175;-94
2021/12/18 05:33:00;;;;;;;5.83;3.10;;;6.90;96.10;;;;;;5166957;27;20201;-95
2021/12/18 05:35:26;;;;;;;8.87;3.17;;;6.90;96.10;;;;;;5166591;27;20238;-95
2021/12/18 05:37:54;;;;;;;4.93;2.83;;;6.90;96.10;;;;;;5166772;27;20137;-95
2021/12/18 05:40:22;;;;;;;4.77;2.67;;;6.80;96.00;;;;;;5166752;27;20158;-95
2021/12/18 05:42:48;;;;;;;4.13;2.23;;;6.80;96.10;;;;;;5166722;27;20133;-95
2021/12/18 05:45:14;;;;;;;5.10;2.50;;;6.90;96.10;;;;;;5166612;27;20140;-95
2021/12/18 05:47:43;;;;;;;3.00;2.20;;;6.80;96.10;;;;;;5166639;27;20144;-95
2021/12/18 05:50:10;;;;;;;3.50;2.07;;;6.90;96.10;;;;;;5166601;27;20152;-95
2021/12/18 05:52:36;;;;;;;7.47;2.70;;;6.80;96.10;;;;;;5166497;27;20144;-94
2021/12/18 05:55:02;;;;;;;3.20;2.40;;;6.80;96.10;;;;;;5166262;27;20176;-95
2021/12/18 05:57:28;;;;;;;2.70;2.13;;;6.80;96.10;;;;;;5165469;27;20197;-94
2021/12/18 05:59:53;;;;;;;5.27;2.43;;;6.80;96.10;;;;;;5166430;27;20133;-95
2021/12/18 06:02:19;;;;;;;4.93;2.33;;;6.80;96.10;;;;;;5166324;27;20133;-94
2021/12/18 06:04:45;;;;;;;5.00;2.90;;;6.80;96.10;;;;;;5166218;27;20141;-94
2021/12/18 06:07:17;;;;;;;5.23;2.53;;;6.80;96.10;;;;;;5166178;27;20132;-94
2021/12/18 06:09:43;;;;;;;3.50;2.40;;;6.80;96.10;;;;;;5166215;27;20133;-95
2021/12/18 06:12:09;;;;;;;7.03;3.27;;;6.80;96.10;;;;;;5166151;27;20141;-95
2021/12/18 06:14:35;;;;;;;5.07;3.57;;;6.80;96.10;;;;;;5165890;27;20179;-96
2021/12/18 06:17:01;;;;;;;6.70;3.50;;;6.80;96.10;;;;;;5166013;27;20197;-95
2021/12/18 06:19:27;;;;;;;3.37;2.33;;;6.80;96.00;;;;;;5166021;27;20129;-94
2021/12/18 06:21:52;;;;;;;4.13;2.60;;;6.80;96.00;;;;;;5165885;27;20197;-95
2021/12/18 06:24:18;;;;;;;6.13;3.47;;;6.80;96.00;;;;;;5165922;27;20204;-94
2021/12/18 06:26:44;;;;;;;5.87;3.40;;;6.80;96.00;;;;;;5165848;27;20143;-93
2021/12/18 06:29:10;;;;;;;7.17;3.70;;;6.80;96.00;;;;;;5165782;27;20133;-94
2021/12/18 06:31:37;;;;;;;7.80;4.40;;;6.80;96.00;;;;;;5165804;27;20203;-94
2021/12/18 06:34:04;;;;;;;8.30;3.97;;;6.80;96.10;;;;;;5165435;27;20172;-95
2021/12/18 06:36:29;;;;;;;6.73;3.77;;;6.80;96.10;;;;;;5165563;27;20125;-94
2021/12/18 06:38:55;;;;;;;7.17;3.80;;;6.80;96.10;;;;;;5165643;27;20158;-94
2021/12/18 06:41:21;;;;;;;5.13;2.87;;;6.80;96.10;;;;;;5165550;27;20161;-95
2021/12/18 06:43:47;;;;;;;3.67;2.90;;;6.80;96.10;;;;;;5165531;27;20158;-95
2021/12/18 06:46:12;;;;;;;4.70;2.83;;;6.80;96.10;;;;;;5165382;27;20201;-95
2021/12/18 06:48:38;;;;;;;6.20;2.70;;;6.80;96.10;;;;;;5165479;27;20148;-95
2021/12/18 06:51:14;;;;;;;6.13;3.30;;;6.80;96.10;;;;;;5165330;27;20158;-95
2021/12/18 06:53:40;;;;;;;6.83;3.47;;;6.80;96.10;;;;;;5165297;27;20136;-96
2021/12/18 06:56:06;;;;;;;5.50;3.17;;;6.80;96.10;;;;;;5165274;27;20192;-95
2021/12/18 06:58:31;;;;;;;7.63;3.50;;;6.80;96.10;;;;;;5165239;27;20132;-95
2021/12/18 07:00:57;;;;;;;5.27;3.53;;;6.80;96.10;;;;;;5165199;27;20165;-95
2021/12/18 07:03:23;;;;;;;6.50;3.60;;;6.80;96.20;;;;;;5165155;27;20133;-95
2021/12/18 07:05:49;;;;;;;7.23;3.70;;;6.80;96.20;;;;;;5165092;27;20168;-95
2021/12/18 07:08:15;;;;;;;8.00;3.83;;;6.80;96.20;;;;;;5164791;27;20133;-95
2021/12/18 07:10:41;;;;;;;4.37;2.50;;;6.80;96.20;;;;;;5165018;27;20161;-95
2021/12/18 07:13:07;;;;;;;7.87;3.70;;;6.80;96.20;;;;;;5165041;27;20133;-95
2021/12/18 07:15:33;;;;;;;6.23;3.30;;;6.80;96.20;;;;;;5164803;27;20173;-95
2021/12/18 07:17:59;;;;;;;7.47;3.30;;;6.80;96.20;;;;;;5164960;27;20208;-95
2021/12/18 07:20:27;;;;;;;5.87;2.90;;;6.80;96.20;;;;;;5164926;27;20133;-95
2021/12/18 07:22:54;;;;;;;5.27;2.73;;;6.80;96.20;;;;;;5164956;27;20133;-95
2021/12/18 07:25:19;;;;;;;6.07;4.20;;;6.80;96.20;;;;;;5164832;27;20200;-95
2021/12/18 07:27:45;;;;;;;6.57;2.90;;;6.80;96.20;;;;;;5164910;27;20137;-95
2021/12/18 07:30:12;;;;;;;7.23;3.70;;;6.80;96.20;;;;;;5164875;27;20140;-96
2021/12/18 07:32:39;;;;;;;6.50;3.90;;;6.80;96.20;;;;;;5164857;27;20137;-95
2021/12/18 07:35:06;;;;;;;7.60;3.77;;;6.80;96.20;;;;;;5164552;27;20187;-95
2021/12/18 07:37:32;;;;;;;9.07;3.90;;;6.80;96.20;;;;;;5164637;27;20190;-94
2021/12/18 07:39:58;;;;;;;9.63;3.70;;;6.80;96.20;;;;;;5164781;27;20144;-95
2021/12/18 07:42:24;;;;;;;12.03;4.83;;;6.80;96.20;;;;;;5164730;27;20161;-95
2021/12/18 07:44:50;;;;;;;10.40;4.07;;;6.80;96.30;;;;;;5164592;27;20156;-95
2021/12/18 07:47:18;;;;;;;8.67;3.37;;;6.80;96.20;;;;;;5164667;27;20141;-95
2021/12/18 07:49:44;;;;;;;6.40;2.83;;;6.80;96.30;;;;;;5164710;27;20143;-95
2021/12/18 07:52:10;;;;;;;3.70;2.63;;;6.80;96.30;;;;;;5164647;27;20145;-94
2021/12/18 07:54:35;;;;;;;3.90;2.53;;;6.90;96.30;;;;;;5164487;27;20220;-95
2021/12/18 07:57:01;;;;;;;5.67;2.83;;;6.90;96.30;;;;;;5164662;27;20164;-96
2021/12/18 07:59:27;;;;;;;4.53;2.30;;;6.90;96.30;;;;;;5164633;27;20144;-95
2021/12/18 08:01:53;;;;;;;4.73;2.30;;;6.90;96.30;;;;;;5164568;27;20133;-96
2021/12/18 08:04:18;;;;;;;3.70;2.40;;;6.90;96.30;;;;;;5164585;27;20208;-95
2021/12/18 08:06:44;;;;;;;4.33;2.23;;;6.90;96.30;;;;;;5164454;27;20209;-94
2021/12/18 08:09:10;;;;;;;4.80;2.80;;;6.80;96.30;;;;;;5164475;27;20219;-95
2021/12/18 08:11:35;;;;;;;5.83;3.00;;;6.90;96.30;;;;;;5164536;27;20157;-95
2021/12/18 08:14:01;;;;;;;4.50;2.73;;;6.90;96.30;;;;;;5164407;27;20216;-95
2021/12/18 08:16:29;;;;;;;6.90;2.97;;;6.90;96.30;;;;;;5164321;27;20141;-94
2021/12/18 08:18:55;;;;;;;4.97;2.40;;;6.80;96.30;;;;;;5161168;27;20173;-93
2021/12/18 08:21:21;;;;;;;5.17;2.23;;;6.90;96.30;;;;;;5164884;27;20153;-91
2021/12/18 08:23:46;;;;;;;4.47;2.50;;;6.80;96.30;;;;;;5166928;27;20223;-94
2021/12/18 08:26:12;;;;;;;7.30;2.50;;;6.80;96.30;;;;;;5166920;27;20172;-95
2021/12/18 08:28:37;;;;;;;4.97;2.40;;;6.80;96.30;;;;;;5166608;27;20171;-94
2021/12/18 08:31:03;;;;;;;4.30;2.20;;;6.80;96.30;;;;;;5166699;27;20153;-94
2021/12/18 08:33:29;;;;;;;3.50;2.20;;;6.80;96.30;;;;;;5166674;27;20165;-92
2021/12/18 08:35:54;;;;;;;4.10;2.20;;;6.80;96.30;;;;;;5166454;27;20203;-95
2021/12/18 08:38:20;;;;;;;4.53;1.97;;;6.80;96.30;;;;;;5166664;27;20170;-93
2021/12/18 08:40:46;;;;;;;4.27;2.13;;;6.80;96.30;;;;;;5166564;27;20160;-93
2021/12/18 08:43:12;;;;;;;2.70;1.77;;;6.90;96.30;;;;;;5166545;27;20207;-92
2021/12/18 08:45:38;;;;;;;2.13;1.70;;;6.80;96.30;;;;;;5166086;27;20199;-95
2021/12/18 08:48:07;;;;;;;1.90;1.77;;;6.90;96.30;;;;;;5166048;27;20177;-95
2021/12/18 08:50:32;;;;;;;2.23;1.90;;;6.90;96.30;;;;;;5198865;22;20223;-91
2021/12/18 08:52:58;;;;;;;2.83;1.77;;;6.90;96.30;;;;;;5064316;28;20218;-92
2021/12/18 08:55:24;;;;;;;3.67;1.90;;;6.90;96.30;;;;;;5059804;28;20220;-93
2021/12/18 08:57:51;;;;;;;2.30;1.57;;;6.90;96.30;;;;;;5057091;28;20181;-93
2021/12/18 09:00:21;;;;;;;4.67;1.90;;;6.90;96.30;;;;;;5058496;28;20153;-93
2021/12/18 09:02:50;;;;;;;3.70;2.73;;;6.90;96.30;;;;;;5057368;28;20165;-93
2021/12/18 09:05:16;;;;;;;3.97;2.40;;;7.00;96.30;;;;;;5059228;28;20205;-93
2021/12/18 09:07:42;;;;;;;3.63;2.37;;;7.00;96.30;;;;;;5059739;28;20251;-94
2021/12/18 09:10:08;;;;;;;9.07;2.53;;;7.00;96.30;;;;;;5059691;28;20228;-94
2021/12/18 09:12:34;;;;;;;8.23;2.50;;;7.10;96.30;;;;;;5060255;28;20232;-93
2021/12/18 09:15:00;;;;;;;8.23;2.70;;;7.10;96.20;;;;;;5059848;28;20227;-92
2021/12/18 09:17:26;;;;;;;9.97;3.10;;;7.10;96.30;;;;;;5060683;28;20168;-92
2021/12/18 09:19:52;;;;;;;8.03;2.77;;;7.10;96.30;;;;;;5060641;28;20161;-93
2021/12/18 09:22:18;;;;;;;9.33;3.80;;;7.10;96.20;;;;;;5060161;28;20195;-94
2021/12/18 09:24:45;;;;;;;8.07;3.70;;;7.20;96.20;;;;;;5060425;28;20184;-92
2021/12/18 09:27:11;;;;;;;14.10;3.27;;;7.20;96.30;;;;;;5060542;28;20169;-91
2021/12/18 09:29:37;;;;;;;10.90;3.63;;;7.20;96.20;;;;;;5060592;28;20157;-89
2021/12/18 09:32:03;;;;;;;13.83;3.90;;;7.20;96.20;;;;;;5060409;28;20224;-89
2021/12/18 09:34:30;;;;;;;9.63;3.23;;;7.20;96.20;;;;;;5060147;28;20239;-93
2021/12/18 09:36:56;;;;;;;8.63;3.50;;;7.20;96.20;;;;;;5060273;28;20154;-91
2021/12/18 09:39:22;;;;;;;16.87;3.30;;;7.30;96.20;;;;;;5060327;28;20172;-90
2021/12/18 09:41:49;;;;;;;12.27;3.63;;;7.30;96.20;;;;;;5060217;28;20168;-92
2021/12/18 09:44:21;;;;;;;15.80;4.43;;;7.30;96.10;;;;;;5057538;28;20193;-93
2021/12/18 09:46:47;;;;;;;23.10;4.37;;;7.30;96.10;;;;;;5059382;28;20196;-92
2021/12/18 09:49:13;;;;;;;15.93;4.53;;;7.30;96.10;;;;;;5059886;28;20176;-91
2021/12/18 09:51:39;;;;;;;27.07;4.60;;;7.30;96.10;;;;;;5059941;28;20192;-92
2021/12/18 09:54:04;;;;;;;22.63;4.80;;;7.40;96.00;;;;;;5059957;28;20215;-93
2021/12/18 09:56:30;;;;;;;18.97;5.40;;;7.40;96.00;;;;;;5059961;28;20195;-92
2021/12/18 09:58:56;;;;;;;26.43;5.20;;;7.40;96.00;;;;;;5060000;28;20180;-92
2021/12/18 10:01:22;;;;;;;22.23;5.00;;;7.40;96.00;;;;;;5059901;28;20185;-91
2021/12/18 10:03:54;;;;;;;17.33;4.50;;;7.40;95.90;;;;;;5059981;28;20208;-91
2021/12/18 10:06:38;;;;;;;18.23;4.50;;;7.50;95.90;;;;;;5059706;28;20192;-91
2021/12/18 10:09:07;;;;;;;19.70;4.93;;;7.50;95.90;;;;;;5059921;28;20152;-91
2021/12/18 10:11:33;;;;;;;25.77;4.80;;;7.50;95.80;;;;;;5059789;28;20176;-91
2021/12/18 10:14:02;;;;;;;25.43;4.60;;;7.50;95.80;;;;;;5059653;28;20207;-91
2021/12/18 10:16:30;;;;;;;19.97;4.13;;;7.50;95.80;;;;;;5059636;28;20269;-92
2021/12/18 10:18:58;;;;;;;26.60;4.73;;;7.50;95.70;;;;;;5059626;28;20165;-92
2021/12/18 10:21:27;;;;;;;15.33;3.90;;;7.50;95.60;;;;;;5059444;28;20169;-93
2021/12/18 10:23:54;;;;;;;19.33;4.13;;;7.60;95.60;;;;;;5059506;28;20267;-91
2021/12/18 10:26:36;;;;;;;17.77;3.93;;;7.60;95.60;;;;;;5059410;28;20252;-92
2021/12/18 10:29:22;;;;;;;20.03;4.30;;;7.70;95.60;;;;;;5059208;28;20240;-93
2021/12/18 10:31:49;;;;;;;28.27;7.47;;;7.70;95.50;;;;;;5058822;28;20202;-90
2021/12/18 10:34:19;;;;;;;21.10;4.13;;;7.70;95.50;;;;;;5059240;28;20201;-92
2021/12/18 10:37:22;;;;;;;23.77;4.50;;;7.70;95.40;;;;;;5059210;28;20201;-91
2021/12/18 10:39:53;;;;;;;22.77;4.33;;;7.80;95.40;;;;;;5059226;28;20183;-91
2021/12/18 10:42:29;;;;;;;24.57;5.10;;;7.80;95.30;;;;;;5059242;28;20202;-91
2021/12/18 10:45:04;;;;;;;15.43;4.00;;;7.80;95.30;;;;;;5058625;28;20211;-92
2021/12/18 10:47:50;;;;;;;24.47;4.43;;;7.80;95.20;;;;;;5059153;28;20160;-91
2021/12/18 10:50:21;;;;;;;17.40;3.90;;;7.90;95.10;;;;;;5058812;28;20188;-92
2021/12/18 10:52:55;;;;;;;28.70;4.70;;;7.90;95.10;;;;;;5058971;28;20161;-91
2021/12/18 10:55:32;;;;;;;15.93;3.83;;;7.90;95.00;;;;;;5058714;28;20266;-93
2021/12/18 10:57:58;;;;;;;23.93;4.70;;;7.90;94.90;;;;;;5058736;28;20196;-93
2021/12/18 11:00:38;;;;;;;19.00;3.80;;;8.00;94.90;;;;;;5058739;28;20180;-92
2021/12/18 11:03:35;;;;;;;22.40;4.43;;;8.00;94.80;;;;;;5058256;28;20203;-92
2021/12/18 11:06:24;;;;;;;24.77;4.57;;;8.00;94.80;;;;;;5048983;28;20192;-92
2021/12/18 11:08:58;;;;;;;15.80;3.90;;;8.00;94.70;;;;;;5058777;28;20192;-93
2021/12/18 11:14:18;;;;;;;21.53;4.77;;;8.10;94.70;;;;;;5059233;28;20185;-92
2021/12/18 11:16:48;;;;;;;23.53;4.80;;;8.10;94.70;;;;;;5058410;28;20180;-93
2021/12/18 11:19:23;;;;;;;32.33;5.50;;;8.20;94.50;;;;;;5057759;28;20244;-92
2021/12/18 11:21:58;;;;;;;20.70;4.93;;;8.20;94.50;;;;;;5058082;28;20192;-92
2021/12/18 11:27:14;;;;;;;25.67;4.57;;;8.20;94.30;;;;;;1220248;26;20196;-91
2021/12/18 11:29:51;;;;;;;26.13;4.67;;;8.30;94.30;;;;;;5061507;28;20194;-93
2021/12/18 11:32:26;;;;;;;22.47;5.03;;;8.30;94.40;;;;;;5061787;28;20152;-92
2021/12/18 11:34:54;;;;;;;27.83;4.60;;;8.30;94.30;;;;;;5061396;28;20647;-93
2021/12/18 11:37:22;;;;;;;17.17;5.53;;;8.30;94.30;;;;;;5060978;28;20180;-93
2021/12/18 11:39:50;;;;;;;27.30;4.97;;;8.30;94.30;;;;;;5061453;28;20168;-93
2021/12/18 11:42:17;;;;;;;28.50;5.37;;;8.30;94.30;;;;;;5061733;28;20215;-92
2021/12/18 11:44:52;;;;;;;24.43;5.20;;;8.30;94.30;;;;;;5061645;28;20176;-92
2021/12/18 11:47:33;;;;;;;24.27;5.07;;;8.40;94.30;;;;;;5061879;28;20155;-93
2021/12/18 11:50:05;;;;;;;27.43;4.57;;;8.30;94.30;;;;;;5061625;28;20227;-93
2021/12/18 11:52:52;;;;;;;22.40;5.10;;;8.40;94.30;;;;;;5061702;28;20183;-93
2021/12/18 11:55:18;;;;;;;27.87;5.07;;;8.40;94.20;;;;;;5061530;28;20215;-92
2021/12/18 11:57:58;;;;;;;33.50;5.77;;;8.50;94.20;;;;;;5065699;28;20176;-92
2021/12/18 12:00:37;;;;;;;25.60;5.00;;;8.50;94.20;;;;;;5065646;28;20180;-93
2021/12/18 12:03:06;;;;;;;30.60;5.30;;;8.50;94.20;;;;;;5065610;28;20180;-93
2021/12/18 12:05:46;;;;;;;23.67;5.03;;;8.50;94.20;;;;;;5065400;28;20185;-93
2021/12/18 12:08:40;;;;;;;24.97;4.43;;;8.50;94.10;;;;;;5065433;28;20160;-92
2021/12/18 12:11:17;;;;;;;20.23;4.47;;;8.50;94.20;;;;;;5065458;28;20167;-92
2021/12/18 12:14:08;;;;;;;27.23;5.50;;;8.60;94.20;;;;;;5065295;28;20163;-92
2021/12/18 12:16:45;;;;;;;21.47;5.03;;;8.50;94.10;;;;;;5065247;28;20180;-94
2021/12/18 12:19:27;;;;;;;19.20;4.50;;;8.60;94.20;;;;;;5064959;28;20245;-95
2021/12/18 12:21:57;;;;;;;29.30;6.27;;;8.50;94.00;;;;;;5065204;28;20175;-93
2021/12/18 12:24:28;;;;;;;20.87;4.73;;;8.50;94.00;;;;;;5064643;28;20156;-94
2021/12/18 12:27:15;;;;;;;20.97;5.87;;;8.50;93.90;;;;;;5063516;28;20171;-94
2021/12/18 12:29:46;;;;;;;30.37;5.40;;;8.60;93.90;;;;;;5064242;28;20163;-94
2021/12/18 12:32:12;;;;;;;21.40;4.40;;;8.60;93.90;;;;;;5064944;28;20203;-93
2021/12/18 12:34:38;;;;;;;27.30;4.97;;;8.70;93.90;;;;;;5063546;28;20199;-93
2021/12/18 12:37:22;;;;;;;21.47;4.70;;;8.70;93.90;;;;;;5061971;28;20193;-94
2021/12/18 12:39:57;;;;;;;27.83;5.77;;;8.70;93.90;;;;;;5063228;28;20168;-94
2021/12/18 12:42:23;;;;;;;19.53;4.80;;;8.60;93.80;;;;;;5058789;28;20175;-94
2021/12/18 12:44:57;;;;;;;21.80;4.53;;;8.70;93.80;;;;;;5063273;28;20207;-92
2021/12/18 12:47:27;;;;;;;27.90;5.80;;;8.70;93.70;;;;;;5054899;28;20183;-93
2021/12/18 12:50:01;;;;;;;25.90;6.30;;;8.80;93.50;;;;;;5053292;28;20172;-92
2021/12/18 12:52:28;;;;;;;26.33;5.10;;;8.90;93.50;;;;;;5055732;28;20152;-93
2021/12/18 12:55:03;;;;;;;29.63;4.60;;;8.90;93.30;;;;;;5050911;28;20207;-94
2021/12/18 12:57:29;;;;;;;26.93;7.07;;;8.90;93.10;;;;;;5051760;28;20231;-93
2021/12/18 12:59:58;;;;;;;24.33;4.97;;;9.00;93.00;;;;;;5049673;28;20176;-93
2021/12/18 13:02:30;;;;;;;21.00;4.63;;;9.00;92.70;;;;;;5047613;28;20184;-93
2021/12/18 13:05:12;;;;;;;26.97;4.67;;;9.00;92.60;;;;;;5048238;28;20199;-93
2021/12/18 13:07:46;;;;;;;24.73;4.53;;;9.10;92.70;;;;;;5049699;28;20172;-92
2021/12/18 13:10:22;;;;;;;25.57;4.63;;;9.10;92.50;;;;;;5048394;28;20207;-93
2021/12/18 13:12:56;;;;;;;29.63;4.57;;;9.10;92.20;;;;;;5049592;28;20179;-93
2021/12/18 13:15:22;;;;;;;25.00;4.90;;;9.10;91.80;;;;;;5049527;28;20215;-92
2021/12/18 13:18:03;;;;;;;29.10;5.37;;;9.00;91.70;;;;;;5048013;28;20172;-93
2021/12/18 13:20:29;;;;;;;26.70;4.30;;;9.00;91.90;;;;;;5048710;28;20258;-93
2021/12/18 13:22:54;;;;;;;19.53;4.63;;;9.00;91.90;;;;;;5051958;28;20183;-93
2021/12/18 13:25:20;;;;;;;23.67;4.83;;;9.00;91.90;;;;;;5047174;28;20237;-93
2021/12/18 13:28:04;;;;;;;24.97;5.23;;;8.80;91.80;;;;;;5047924;28;20191;-93
2021/12/18 13:30:34;;;;;;;26.67;5.17;;;8.80;92.10;;;;;;5048511;28;20199;-93
2021/12/18 13:33:04;;;;;;;30.20;4.77;;;8.70;92.00;;;;;;5050451;28;20165;-93
2021/12/18 13:35:35;;;;;;;22.77;5.10;;;8.70;92.10;;;;;;5050062;28;20302;-93
2021/12/18 13:38:12;;;;;;;25.53;5.27;;;8.70;91.90;;;;;;5044153;28;20214;-92
2021/12/18 13:40:47;;;;;;;28.77;5.17;;;8.70;92.00;;;;;;5046723;28;20172;-93
2021/12/18 13:43:24;;;;;;;20.63;4.70;;;8.60;92.00;;;;;;5048786;28;20203;-93
2021/12/18 13:45:57;;;;;;;18.47;4.30;;;8.60;92.10;;;;;;5051410;28;20249;-92